Time;durP1;ratioP1;P1;durP2;ratioP2;P2;SDS_P1;SDS_P2;PMS_P1;PMS_P2;Temp;Humidity;BMP_temperature;BMP_pressure;BME280_temperature;BME280_humidity;BME280_pressure;Samples;Min_cycle;Max_cycle;Signal;HPM_P1;HPM_P2
2022/01/26 00:05:47;;;;;;;1.92;1.60;;;;;;;20.55;33.11;101878.13;4162182;28;20461;-46
2022/01/26 00:07:49;;;;;;;2.00;1.50;;;;;;;20.53;33.28;101875.59;4203065;28;20047;-46
2022/01/26 00:09:50;;;;;;;2.95;1.77;;;;;;;20.54;33.42;101882.00;4228701;28;20035;-47
2022/01/26 00:11:52;;;;;;;2.00;1.65;;;;;;;20.54;33.28;101887.56;4229806;28;20108;-49
2022/01/26 00:13:54;;;;;;;3.33;1.35;;;;;;;20.52;33.35;101889.75;4229583;28;20101;-48
2022/01/26 00:16:01;;;;;;;1.83;1.55;;;;;;;20.51;33.03;101888.91;4211131;28;20040;-48
2022/01/26 00:18:06;;;;;;;3.08;1.77;;;;;;;20.51;33.04;101888.91;4229113;28;20044;-46
2022/01/26 00:20:19;;;;;;;1.58;1.40;;;;;;;20.50;33.09;101894.72;4229295;28;20036;-45
2022/01/26 00:25:05;;;;;;;2.33;1.17;;;;;;;20.49;32.98;101901.41;4230815;28;20109;-48
2022/01/26 00:27:35;;;;;;;1.35;1.23;;;;;;;20.48;32.98;101895.00;4229643;28;20454;-51
2022/01/26 00:29:37;;;;;;;2.88;1.30;;;;;;;20.47;32.92;101904.41;4229475;28;20036;-51
2022/01/26 00:38:47;;;;;;;1.60;1.33;;;;;;;20.44;33.37;101932.72;4230646;28;20440;-47
2022/01/26 00:41:02;;;;;;;1.52;1.40;;;;;;;20.44;32.94;101943.00;4229264;28;20043;-49
2022/01/26 00:43:15;;;;;;;3.45;1.60;;;;;;;20.43;33.35;101936.56;4229092;28;20099;-49
2022/01/26 00:45:22;;;;;;;2.25;1.75;;;;;;;20.43;33.25;101930.16;4230504;28;20424;-47
2022/01/26 00:47:26;;;;;;;2.38;1.40;;;;;;;20.43;32.92;101941.28;4230334;28;20036;-50
2022/01/26 00:49:27;;;;;;;1.70;1.38;;;;;;;20.42;32.87;101934.88;4223543;28;20040;-47
2022/01/26 00:51:29;;;;;;;1.90;1.50;;;;;;;20.41;33.07;101933.22;4219508;28;20068;-49
2022/01/26 00:53:34;;;;;;;1.60;1.40;;;;;;;20.39;33.08;101942.88;4223213;28;20093;-48
2022/01/26 00:55:38;;;;;;;2.45;1.55;;;;;;;20.39;33.24;101938.19;4213481;28;20094;-49
2022/01/26 00:57:41;;;;;;;1.52;1.42;;;;;;;20.37;33.14;101934.81;4227262;28;20463;-47
2022/01/26 00:59:42;;;;;;;1.80;1.30;;;;;;;20.37;33.11;101936.75;4231033;27;20448;-46
2022/01/26 01:01:45;;;;;;;1.52;1.40;;;;;;;20.37;32.84;101942.31;4233337;27;20040;-47
2022/01/26 01:03:52;;;;;;;1.63;1.35;;;;;;;20.31;32.95;101936.66;4229132;27;20084;-47
2022/01/26 01:06:04;;;;;;;2.05;1.50;;;;;;;20.34;33.30;101948.38;4235527;27;20047;-48
2022/01/26 01:08:12;;;;;;;2.33;1.55;;;;;;;20.35;33.09;101956.47;4240824;27;20055;-47
2022/01/26 01:10:16;;;;;;;1.80;1.50;;;;;;;20.33;32.90;101966.13;4242460;27;20124;-49
2022/01/26 01:12:20;;;;;;;1.77;1.30;;;;;;;20.32;33.08;101962.53;4236369;27;20047;-46
2022/01/26 01:14:23;;;;;;;1.50;1.35;;;;;;;20.32;32.92;101973.66;4246825;27;20069;-46
2022/01/26 01:16:24;;;;;;;2.47;1.50;;;;;;;20.31;33.20;101971.97;4245696;27;20108;-50
2022/01/26 01:18:51;;;;;;;;;;;;;;;;;;;;;
2022/01/26 01:29:44;;;;;;;2.28;1.70;;;;;;;20.24;33.09;101980.44;4241446;27;20095;-47
2022/01/26 01:31:50;;;;;;;1.92;1.50;;;;;;;20.26;33.38;101996.91;4249312;27;20047;-49
2022/01/26 01:33:52;;;;;;;3.88;1.30;;;;;;;20.25;33.31;101993.28;4241307;27;20027;-48
2022/01/26 01:35:53;;;;;;;1.65;1.17;;;;;;;20.25;33.25;102001.63;4245908;27;20416;-47
2022/01/26 01:37:55;;;;;;;3.65;1.48;;;;;;;20.25;32.99;101996.06;4248480;27;20096;-48
2022/01/26 01:39:56;;;;;;;13.38;1.95;;;;;;;20.28;33.26;101989.97;4248697;27;20096;-47
2022/01/26 01:42:01;;;;;;;6.38;1.55;;;;;;;20.27;33.35;101988.28;4244687;27;20035;-46
2022/01/26 01:44:04;;;;;;;7.03;1.45;;;;;;;20.27;33.02;101990.25;4229829;27;20073;-47
2022/01/26 01:46:06;;;;;;;6.35;1.50;;;;;;;20.25;33.10;101996.06;4233974;27;20047;-47
2022/01/26 01:48:08;;;;;;;7.53;2.15;;;;;;;20.31;33.32;102003.38;4234368;27;20035;-47
2022/01/26 01:50:12;;;;;;;3.65;1.42;;;;;;;20.31;33.25;101999.75;4245923;27;20039;-52
2022/01/26 01:52:15;;;;;;;13.43;2.10;;;;;;;20.29;33.30;102013.88;4238479;27;20047;-50
2022/01/26 01:54:18;;;;;;;7.75;1.83;;;;;;;20.33;32.97;102007.84;4248353;27;20042;-46
2022/01/26 01:56:23;;;;;;;9.23;1.67;;;;;;;20.33;33.46;102013.41;4230961;27;20444;-51
2022/01/26 01:58:25;;;;;;;8.55;1.77;;;;;;;20.32;33.12;102009.78;4241318;27;20456;-47
2022/01/26 02:00:28;;;;;;;22.58;3.13;;;;;;;20.35;33.05;102016.78;4243824;27;20113;-45
2022/01/26 02:02:29;;;;;;;6.47;2.13;;;;;;;20.32;33.30;102015.34;4232930;27;20031;-50
2022/01/26 02:04:30;;;;;;;17.75;2.30;;;;;;;20.32;33.16;102023.69;4235491;27;20096;-49
2022/01/26 02:06:32;;;;;;;14.10;2.72;;;;;;;20.34;32.91;102026.19;4240700;27;20031;-45
2022/01/26 02:08:34;;;;;;;15.52;2.35;;;;;;;20.35;33.12;102027.91;4235169;27;20586;-46
2022/01/26 02:10:38;;;;;;;11.68;2.58;;;;;;;20.34;33.04;102031.75;4222694;28;20043;-45
2022/01/26 02:12:45;;;;;;;17.15;2.95;;;;;;;20.31;33.37;102039.50;4228451;28;20044;-45
2022/01/26 02:14:52;;;;;;;13.38;1.80;;;;;;;20.30;33.23;102043.41;4230440;27;20080;-47
2022/01/26 02:19:26;;;;;;;12.82;1.90;;;;;;;20.33;33.15;102047.59;4229172;27;20088;-49
2022/01/26 02:58:02;;;;;;;13.00;1.70;;;;;;;20.21;33.41;102058.78;4218220;28;20101;-46
2022/01/26 03:00:26;;;;;;;8.75;1.95;;;;;;;20.20;32.95;102064.56;4214306;28;20028;-48
2022/01/26 03:02:38;;;;;;;5.05;1.60;;;;;;;20.19;33.01;102069.28;4221844;28;20084;-47
2022/01/26 03:04:44;;;;;;;8.15;1.98;;;;;;;20.18;32.99;102064.84;4230002;28;20410;-47
2022/01/26 03:08:57;;;;;;;6.55;1.70;;;;;;;20.15;33.22;102079.22;4231470;28;20019;-48
2022/01/26 03:11:05;;;;;;;5.30;1.90;;;;;;;20.15;33.25;102076.44;4229798;28;20040;-47
2022/01/26 03:13:15;;;;;;;6.22;1.40;;;;;;;20.14;33.34;102083.09;4230190;28;20108;-47
2022/01/26 03:15:34;;;;;;;6.20;1.83;;;;;;;20.11;33.10;102075.25;4230599;28;20092;-47
2022/01/26 03:20:13;;;;;;;6.07;1.85;;;;;;;20.11;33.41;102089.13;4207254;28;20036;-50
2022/01/26 03:29:15;;;;;;;7.63;2.03;;;;;;;20.01;33.33;102091.72;4247998;27;20166;-46
2022/01/26 03:33:56;;;;;;;7.63;1.80;;;;;;;19.92;33.83;102088.50;4231073;28;20085;-46
2022/01/26 03:35:59;;;;;;;5.63;1.60;;;;;;;19.92;33.49;102093.19;4230912;28;20543;-46
2022/01/26 03:38:00;;;;;;;5.50;2.83;;;;;;;19.87;34.07;102088.38;4230654;28;20039;-49
2022/01/26 03:40:12;;;;;;;6.55;2.00;;;;;;;19.85;33.95;102095.28;4229734;28;20065;-47
2022/01/26 03:42:15;;;;;;;6.22;1.70;;;;;;;19.89;33.80;102097.34;4230131;28;20471;-52
2022/01/26 03:44:17;;;;;;;5.07;1.60;;;;;;;19.91;34.04;102085.97;4229557;28;20043;-48
2022/01/26 03:46:18;;;;;;;3.85;2.00;;;;;;;19.91;34.27;102091.53;4243147;27;20103;-45
2022/01/26 03:48:19;;;;;;;9.48;1.60;;;;;;;19.92;33.90;102087.66;4247557;27;20429;-48
2022/01/26 03:50:22;;;;;;;5.20;1.70;;;;;;;19.92;33.95;102088.50;4229302;28;20031;-47
2022/01/26 03:52:24;;;;;;;6.30;1.52;;;;;;;19.93;34.18;102081.00;4247436;28;20059;-47
2022/01/26 03:54:26;;;;;;;5.72;1.80;;;;;;;19.94;34.06;102078.00;4235432;28;20035;-51
2022/01/26 03:56:27;;;;;;;4.35;1.67;;;;;;;19.95;34.44;102076.06;4233923;28;20023;-50
2022/01/26 03:58:28;;;;;;;5.90;2.20;;;;;;;19.95;33.85;102073.28;4230156;28;20081;-50
2022/01/26 04:00:30;;;;;;;5.38;1.58;;;;;;;19.97;33.95;102073.84;4226260;28;20044;-47
2022/01/26 04:02:31;;;;;;;7.38;2.10;;;;;;;19.98;34.32;102081.97;4213081;28;20044;-46
2022/01/26 04:04:40;;;;;;;4.90;1.75;;;;;;;20.00;34.01;102087.25;4213583;28;20071;-49
2022/01/26 04:06:41;;;;;;;5.47;1.50;;;;;;;20.00;33.83;102081.72;4213173;28;20044;-47
2022/01/26 04:08:44;;;;;;;3.53;1.65;;;;;;;20.04;33.82;102099.56;4213589;28;20048;-50
2022/01/26 04:12:59;;;;;;;6.68;2.00;;;;;;;20.03;34.22;102098.72;4219561;28;20085;-48
2022/01/26 04:15:08;;;;;;;4.32;1.70;;;;;;;20.06;34.27;102102.94;4229648;28;20531;-49
2022/01/26 04:17:10;;;;;;;3.55;1.48;;;;;;;20.05;33.99;102095.69;4229726;28;20451;-48
2022/01/26 04:19:12;;;;;;;4.38;1.45;;;;;;;20.07;34.02;102087.97;4229518;28;20420;-51
2022/01/26 04:24:08;;;;;;;4.65;1.50;;;;;;;20.07;33.98;102099.09;4230863;28;20028;-49
2022/01/26 04:25:57;;;;;;;9.88;2.15;;;;;;;20.09;34.12;102107.16;4212566;28;20044;-50
2022/01/26 04:28:04;;;;;;;3.95;1.45;;;;;;;20.10;34.21;102103.28;4213259;28;20465;-50
2022/01/26 04:30:06;;;;;;;1.70;1.08;;;;;;;20.08;34.06;102106.34;4217791;28;20093;-51
2022/01/26 04:32:09;;;;;;;4.60;1.23;;;;;;;20.09;34.40;102102.44;4240055;27;20035;-48
2022/01/26 04:34:11;;;;;;;5.65;1.23;;;;;;;20.10;34.32;102093.03;4250435;27;20162;-48
2022/01/26 04:36:17;;;;;;;3.55;1.83;;;;;;;20.12;34.63;102096.41;4242613;27;20040;-46
2022/01/26 04:40:20;;;;;;;8.88;5.28;;;;;;;20.12;34.41;102101.13;4233465;28;20045;-52
2022/01/26 04:43:11;;;;;;;11.85;5.72;;;;;;;20.14;34.65;102098.94;4232979;28;20116;-45
2022/01/26 04:44:54;;;;;;;11.75;6.70;;;;;;;20.12;34.83;102101.13;4222784;28;20368;-48
2022/01/26 04:46:55;;;;;;;12.13;6.05;;;;;;;20.16;34.37;102103.16;4233075;28;20105;-48
2022/01/26 04:48:57;;;;;;;11.88;7.05;;;;;;;20.16;34.71;102103.16;4221777;28;20445;-46
2022/01/26 04:50:58;;;;;;;11.63;6.82;;;;;;;20.14;34.37;102097.00;4232606;28;20076;-44
2022/01/26 04:52:59;;;;;;;11.73;6.80;;;;;;;20.15;34.36;102084.78;4232791;28;20048;-44
2022/01/26 04:55:01;;;;;;;11.43;5.90;;;;;;;20.16;34.18;102091.19;4217279;28;20036;-43
2022/01/26 04:57:03;;;;;;;15.77;6.97;;;;;;;20.16;34.16;102103.16;4216280;28;20036;-45
2022/01/26 04:59:04;;;;;;;9.77;6.40;;;;;;;20.17;34.48;102098.44;4215571;28;20044;-49
2022/01/26 05:01:08;;;;;;;8.63;5.75;;;;;;;20.16;34.53;102103.16;4215879;28;20056;-45
2022/01/26 05:03:10;;;;;;;11.30;6.85;;;;;;;20.17;34.23;102098.44;4215888;28;20103;-44
2022/01/26 05:05:12;;;;;;;15.45;6.28;;;;;;;20.16;34.44;102105.94;4215832;28;20093;-46
2022/01/26 05:07:13;;;;;;;10.77;5.72;;;;;;;20.16;34.38;102122.63;4231189;28;20035;-45
2022/01/26 05:09:20;;;;;;;10.55;6.30;;;;;;;20.16;34.52;102124.53;4221205;28;20094;-47
2022/01/26 05:11:45;;;;;;;10.02;6.25;;;;;;;20.17;34.25;102124.31;4216188;28;20079;-45
2022/01/26 05:13:42;;;;;;;9.82;5.75;;;;;;;20.16;34.02;102122.63;4231223;28;20140;-46
2022/01/26 05:15:46;;;;;;;9.45;5.70;;;;;;;20.15;34.13;102129.25;4215953;28;20467;-46
2022/01/26 05:17:51;;;;;;;10.88;5.43;;;;;;;20.16;34.22;102130.97;4221513;28;20096;-45
2022/01/26 05:19:56;;;;;;;7.72;5.05;;;;;;;20.15;34.23;102145.91;4221721;28;20040;-46
2022/01/26 05:21:58;;;;;;;10.05;5.13;;;;;;;20.15;34.24;102143.13;4215403;28;20857;-48
2022/01/26 05:24:00;;;;;;;9.00;4.88;;;;;;;20.14;33.96;102148.97;4216954;28;20036;-46
2022/01/26 05:26:01;;;;;;;9.15;5.25;;;;;;;20.08;34.20;102133.28;4216341;28;20118;-46
2022/01/26 05:28:03;;;;;;;9.52;5.40;;;;;;;20.09;33.94;102134.97;4220624;28;20163;-47
2022/01/26 05:30:09;;;;;;;10.27;5.70;;;;;;;20.13;34.29;102142.56;4225643;28;20073;-47
2022/01/26 05:32:10;;;;;;;11.38;5.35;;;;;;;20.13;33.85;102145.34;4226392;28;20491;-49
2022/01/26 05:34:11;;;;;;;8.07;5.25;;;;;;;20.14;33.85;102151.72;4216528;28;20053;-50
2022/01/26 05:36:16;;;;;;;8.38;4.90;;;;;;;20.13;34.01;102158.38;4215679;28;20089;-49
2022/01/26 05:38:18;;;;;;;10.63;5.35;;;;;;;20.07;33.95;102163.00;4215134;28;20040;-50
2022/01/26 05:40:19;;;;;;;8.70;5.43;;;;;;;20.12;34.03;102165.03;4230694;28;20044;-46
2022/01/26 05:42:20;;;;;;;8.50;5.03;;;;;;;20.11;33.91;102166.94;4223804;28;20044;-48
2022/01/26 05:44:22;;;;;;;7.60;5.07;;;;;;;20.10;34.09;102181.94;4226475;28;20039;-46
2022/01/26 05:48:55;;;;;;;8.82;4.22;;;;;;;20.09;34.13;102174.69;4212584;28;20053;-45
2022/01/26 05:51:08;;;;;;;7.85;4.50;;;;;;;20.06;33.76;102178.81;4231825;28;20036;-45
2022/01/26 05:53:09;;;;;;;8.45;4.53;;;;;;;20.11;33.77;102191.13;4223711;28;20441;-45
2022/01/26 05:55:11;;;;;;;7.10;4.43;;;;;;;20.09;33.83;102194.16;4214651;28;20081;-44
2022/01/26 05:57:12;;;;;;;7.97;3.97;;;;;;;20.07;33.97;102188.00;4215129;28;20097;-46
2022/01/26 05:59:19;;;;;;;6.70;4.28;;;;;;;20.07;33.79;102182.44;4214579;28;20097;-45
2022/01/26 06:01:21;;;;;;;7.45;4.50;;;;;;;20.06;34.18;102181.59;4214872;28;20040;-48
2022/01/26 06:03:25;;;;;;;7.00;4.60;;;;;;;20.05;34.04;102179.06;4215119;28;20048;-45
2022/01/26 06:05:27;;;;;;;5.78;3.90;;;;;;;20.05;33.66;102173.50;4219017;28;20036;-46
2022/01/26 06:07:28;;;;;;;5.47;3.67;;;;;;;20.02;33.67;102173.97;4227267;28;20035;-47
2022/01/26 06:09:31;;;;;;;6.07;3.78;;;;;;;20.03;33.82;102170.97;4231273;28;20048;-49
2022/01/26 06:11:36;;;;;;;4.88;3.42;;;;;;;20.03;34.11;102181.25;4219694;28;20028;-50
2022/01/26 06:13:37;;;;;;;7.60;4.35;;;;;;;20.03;33.91;102178.47;4214361;28;20066;-50
2022/01/26 06:15:40;;;;;;;8.32;4.55;;;;;;;20.02;33.98;102179.53;4215273;28;20475;-47
2022/01/26 06:17:41;;;;;;;6.43;4.10;;;;;;;20.01;33.97;102187.03;4214511;28;20437;-43
2022/01/26 06:19:42;;;;;;;6.85;3.75;;;;;;;20.01;33.70;102200.09;4213709;28;20089;-45
2022/01/26 06:21:44;;;;;;;8.15;3.63;;;;;;;19.99;33.75;102197.56;4214849;28;20098;-46
2022/01/26 06:23:45;;;;;;;7.88;3.72;;;;;;;19.99;33.56;102196.72;4223311;28;20077;-48
2022/01/26 06:25:46;;;;;;;5.90;3.67;;;;;;;19.99;33.94;102224.50;4216906;28;20039;-47
2022/01/26 06:27:55;;;;;;;5.78;3.50;;;;;;;19.98;33.64;102222.81;4224781;28;20489;-45
2022/01/26 06:29:56;;;;;;;5.22;3.40;;;;;;;19.98;33.80;102222.81;4214087;28;20116;-48
2022/01/26 06:31:58;;;;;;;5.72;3.53;;;;;;;19.94;33.78;102211.34;4218846;28;20035;-50
2022/01/26 06:34:02;;;;;;;6.75;3.25;;;;;;;19.96;33.87;102217.50;4222763;28;20463;-48
2022/01/26 06:36:03;;;;;;;4.77;2.90;;;;;;;19.95;33.97;102223.28;4214093;28;20040;-51
2022/01/26 06:38:05;;;;;;;5.50;3.25;;;;;;;19.92;34.02;102230.16;4223264;28;20047;-51
2022/01/26 06:40:07;;;;;;;5.63;3.72;;;;;;;19.93;33.86;102231.00;4230376;28;20428;-48
2022/01/26 06:42:13;;;;;;;6.25;3.33;;;;;;;19.92;33.86;102235.72;4230668;28;20044;-45
2022/01/26 06:44:22;;;;;;;5.68;3.33;;;;;;;19.93;33.94;102248.56;4231005;28;20532;-48
2022/01/26 06:46:37;;;;;;;6.07;3.15;;;;;;;19.93;34.01;102250.47;4231271;28;20448;-48
2022/01/26 06:49:00;;;;;;;5.00;3.33;;;;;;;19.92;33.78;102249.63;4230859;28;20116;-47
2022/01/26 06:51:01;;;;;;;5.63;3.22;;;;;;;19.91;33.57;102252.66;4215037;28;20093;-46
2022/01/26 06:53:08;;;;;;;3.83;2.63;;;;;;;19.91;33.79;102260.97;4214194;28;20097;-46
2022/01/26 06:55:10;;;;;;;6.10;3.17;;;;;;;19.85;33.63;102261.97;4214154;28;20109;-49
2022/01/26 06:57:12;;;;;;;4.18;2.63;;;;;;;19.90;33.96;102281.53;4213906;28;20039;-47
2022/01/26 06:59:13;;;;;;;3.75;2.45;;;;;;;19.87;33.84;102276.44;4213942;28;20040;-51
2022/01/26 07:01:15;;;;;;;4.47;2.97;;;;;;;19.86;33.66;102269.19;4214646;28;20085;-50
2022/01/26 07:03:17;;;;;;;5.00;2.88;;;;;;;19.85;33.61;102273.06;4213822;28;20044;-48
2022/01/26 07:05:18;;;;;;;5.50;3.00;;;;;;;19.84;33.44;102271.34;4213910;28;20031;-46
2022/01/26 07:07:19;;;;;;;3.22;2.50;;;;;;;19.84;33.77;102286.13;4214041;28;20044;-50
2022/01/26 07:09:21;;;;;;;4.18;2.85;;;;;;;19.84;33.57;102288.03;4223918;28;20035;-50
2022/01/26 07:11:22;;;;;;;4.85;2.53;;;;;;;19.82;33.63;102291.06;4224752;28;20093;-48
2022/01/26 07:13:26;;;;;;;4.78;2.78;;;;;;;19.83;33.57;102294.69;4229582;28;20031;-50
2022/01/26 07:22:16;;;;;;;4.43;2.03;;;;;;;19.79;33.72;102308.19;4231082;28;20175;-47
2022/01/26 07:24:17;;;;;;;3.17;2.33;;;;;;;19.78;33.34;102307.34;4218382;28;20454;-45
2022/01/26 07:26:19;;;;;;;3.85;2.35;;;;;;;19.76;33.83;102303.97;4214555;28;20044;-45
2022/01/26 07:28:20;;;;;;;3.90;2.47;;;;;;;19.77;33.64;102316.78;4220578;28;20429;-46
2022/01/26 07:30:22;;;;;;;3.22;2.13;;;;;;;19.76;33.67;102320.66;4217216;28;20540;-46
2022/01/26 07:32:24;;;;;;;3.42;2.22;;;;;;;19.76;33.40;102319.81;4226304;28;20040;-45
2022/01/26 07:34:26;;;;;;;3.90;2.58;;;;;;;19.75;33.65;102318.13;4216544;28;20090;-49
2022/01/26 07:36:27;;;;;;;3.75;2.28;;;;;;;19.73;33.41;102326.66;4214636;28;20537;-47
2022/01/26 07:38:30;;;;;;;2.45;1.92;;;;;;;19.71;33.31;102317.75;4213128;28;20044;-47
2022/01/26 07:40:32;;;;;;;3.70;2.28;;;;;;;19.71;33.68;102323.31;4226321;28;20051;-47
2022/01/26 07:42:34;;;;;;;2.67;2.10;;;;;;;19.65;33.46;102318.69;4216776;28;20043;-46
2022/01/26 07:44:38;;;;;;;3.33;2.20;;;;;;;19.71;33.68;102326.06;4213855;28;20544;-50
2022/01/26 07:46:39;;;;;;;4.18;2.17;;;;;;;19.70;33.49;102329.06;4227010;28;20104;-45
2022/01/26 07:48:40;;;;;;;4.13;1.90;;;;;;;19.68;33.61;102334.03;4228907;28;20043;-47
2022/01/26 07:50:42;;;;;;;3.25;1.85;;;;;;;19.67;33.34;102327.63;4215348;28;20040;-47
2022/01/26 07:52:43;;;;;;;3.20;1.80;;;;;;;19.66;33.19;102330.66;4227489;28;20061;-46
2022/01/26 07:54:51;;;;;;;4.13;2.42;;;;;;;19.64;33.61;102333.66;4227383;28;20096;-46
2022/01/26 07:56:52;;;;;;;3.97;2.33;;;;;;;19.64;33.28;102333.66;4216697;28;20036;-48
2022/01/26 07:58:53;;;;;;;4.22;2.20;;;;;;;19.63;33.64;102337.53;4229916;28;20056;-47
2022/01/26 08:00:55;;;;;;;2.75;2.20;;;;;;;19.62;33.39;102333.06;4230066;28;20040;-50
2022/01/26 08:02:56;;;;;;;3.75;1.92;;;;;;;19.62;33.44;102338.63;4229309;28;20100;-50
2022/01/26 08:04:58;;;;;;;3.33;2.20;;;;;;;19.62;33.37;102341.41;4228948;28;20043;-49
2022/01/26 08:06:59;;;;;;;2.97;1.95;;;;;;;19.60;33.27;102343.53;4216494;28;20482;-45
2022/01/26 08:09:00;;;;;;;3.10;2.10;;;;;;;19.59;33.39;102355.72;4217283;28;20040;-45
2022/01/26 08:11:02;;;;;;;2.50;1.88;;;;;;;19.59;33.50;102357.66;4217407;28;20454;-48
2022/01/26 08:13:04;;;;;;;2.30;1.73;;;;;;;19.52;33.41;102353.06;4218146;28;20097;-47
2022/01/26 08:15:07;;;;;;;3.15;2.00;;;;;;;19.55;33.62;102358.13;4231997;28;20055;-50
2022/01/26 08:17:09;;;;;;;2.38;1.58;;;;;;;19.52;33.60;102352.22;4218992;28;20036;-48
2022/01/26 08:19:13;;;;;;;3.38;2.00;;;;;;;19.50;33.49;102351.59;4221154;28;20040;-46
2022/01/26 08:21:15;;;;;;;2.33;1.67;;;;;;;19.57;33.43;102362.59;4228515;28;20109;-49
2022/01/26 08:23:19;;;;;;;2.90;1.90;;;;;;;19.58;33.79;102373.47;4217736;28;20044;-45
2022/01/26 08:25:22;;;;;;;2.10;1.50;;;;;;;19.58;33.36;102367.91;4235356;27;20444;-44
2022/01/26 08:27:26;;;;;;;2.53;1.60;;;;;;;19.58;33.36;102354.03;4229798;28;20040;-47
2022/01/26 08:29:42;;;;;;;3.05;1.67;;;;;;;19.59;33.37;102364.03;4217856;27;20039;-49
2022/01/26 08:31:44;;;;;;;2.20;1.70;;;;;;;19.61;33.09;102367.47;4219186;28;20039;-48
2022/01/26 08:33:46;;;;;;;2.70;1.40;;;;;;;19.61;33.17;102361.94;4217326;28;20036;-50
2022/01/26 08:35:47;;;;;;;2.53;1.60;;;;;;;19.62;33.28;102363.63;4219610;28;20044;-50
2022/01/26 08:37:48;;;;;;;1.58;1.27;;;;;;;19.62;32.93;102369.16;4233321;28;20097;-47
2022/01/26 08:39:50;;;;;;;1.70;1.30;;;;;;;19.64;33.19;102358.66;4229134;28;20467;-48
2022/01/26 08:41:51;;;;;;;2.22;1.48;;;;;;;19.66;32.84;102375.09;4216744;28;20112;-45
2022/01/26 08:43:52;;;;;;;2.97;1.52;;;;;;;19.67;32.71;102365.69;4216344;28;20085;-45
2022/01/26 08:45:54;;;;;;;2.08;1.48;;;;;;;19.69;32.84;102381.00;4215511;28;20097;-46
2022/01/26 08:47:56;;;;;;;2.20;1.50;;;;;;;19.71;32.50;102378.00;4222040;28;20039;-48
2022/01/26 08:49:57;;;;;;;1.55;1.35;;;;;;;19.73;32.31;102384.16;4225436;28;20028;-46
2022/01/26 08:51:59;;;;;;;1.48;1.23;;;;;;;19.73;32.72;102387.78;4206187;28;20461;-50
2022/01/26 08:54:00;;;;;;;1.67;1.30;;;;;;;19.73;32.16;102393.31;4232783;28;20109;-47
2022/01/26 08:56:02;;;;;;;2.47;1.27;;;;;;;19.72;32.42;102393.56;4223030;28;20040;-48
2022/01/26 08:58:04;;;;;;;1.75;1.27;;;;;;;19.74;32.29;102389.47;4216465;28;20060;-48
2022/01/26 09:00:08;;;;;;;1.40;0.90;;;;;;;19.73;32.23;102387.78;4223855;28;20044;-48
2022/01/26 09:02:09;;;;;;;1.75;0.93;;;;;;;19.75;32.06;102396.72;4223572;28;20040;-45
2022/01/26 09:04:11;;;;;;;1.88;1.33;;;;;;;19.75;32.34;102393.09;4224378;28;20036;-46
2022/01/26 09:06:13;;;;;;;1.25;1.00;;;;;;;19.77;31.87;102399.25;4223279;28;20435;-46
2022/01/26 09:08:17;;;;;;;1.65;1.38;;;;;;;19.76;32.28;102392.84;4217665;28;20410;-50
2022/01/26 09:10:18;;;;;;;2.17;1.35;;;;;;;19.77;32.16;102396.47;4216326;28;20093;-45
2022/01/26 09:12:20;;;;;;;1.23;0.90;;;;;;;19.73;32.08;102387.78;4227276;28;20413;-47
2022/01/26 09:14:26;;;;;;;1.52;0.95;;;;;;;19.77;32.20;102407.59;4214633;28;20081;-49
2022/01/26 09:16:29;;;;;;;1.27;1.00;;;;;;;19.77;31.91;102407.59;4214660;28;20048;-48
2022/01/26 09:18:52;;;;;;;0.98;0.85;;;;;;;19.76;31.73;102412.31;4219799;28;20044;-45
2022/01/26 09:20:54;;;;;;;1.30;1.05;;;;;;;19.77;31.92;102405.66;4217676;28;20040;-45
2022/01/26 09:22:55;;;;;;;1.42;1.02;;;;;;;19.78;31.87;102400.94;4226969;28;20047;-48
2022/01/26 09:24:57;;;;;;;1.38;1.05;;;;;;;19.75;31.86;102396.72;4230136;28;20047;-45
2022/01/26 09:26:59;;;;;;;1.77;0.98;;;;;;;19.77;31.75;102411.22;4232760;28;20035;-46
2022/01/26 09:29:00;;;;;;;1.25;0.90;;;;;;;19.77;32.10;102414.00;4216046;28;20192;-47
2022/01/26 09:31:02;;;;;;;1.27;0.82;;;;;;;19.73;32.03;102404.44;4232011;28;20084;-46
2022/01/26 09:33:03;;;;;;;1.13;0.93;;;;;;;19.76;32.14;102412.31;4215346;28;20040;-47
2022/01/26 09:35:09;;;;;;;1.38;1.10;;;;;;;19.77;31.62;102421.47;4216069;28;20484;-49
2022/01/26 09:37:13;;;;;;;1.33;0.88;;;;;;;19.77;31.88;102419.53;4226350;28;20039;-47
2022/01/26 09:39:17;;;;;;;0.80;0.70;;;;;;;19.71;31.74;102412.19;4216845;28;20028;-47
2022/01/26 09:41:20;;;;;;;1.98;0.65;;;;;;;19.75;31.99;102424.50;4199418;28;20029;-45
2022/01/26 09:43:21;;;;;;;1.80;1.15;;;;;;;19.75;31.66;102427.28;4225511;28;20040;-45
2022/01/26 09:45:25;;;;;;;1.20;0.82;;;;;;;19.70;31.79;102417.94;4215533;28;20043;-47
2022/01/26 09:47:27;;;;;;;1.33;0.90;;;;;;;19.76;31.65;102437.31;4222793;28;20039;-46
2022/01/26 09:49:33;;;;;;;3.05;1.00;;;;;;;19.75;32.05;102443.94;4231647;28;20470;-47
2022/01/26 09:51:41;;;;;;;1.63;1.08;;;;;;;19.74;31.91;102450.56;4231946;28;20043;-46
2022/01/26 09:53:45;;;;;;;1.15;0.90;;;;;;;19.74;31.64;102449.72;4230555;28;20089;-47
2022/01/26 09:55:46;;;;;;;1.17;0.95;;;;;;;19.73;31.92;102446.09;4216588;28;20082;-46
2022/01/26 09:57:48;;;;;;;1.00;0.82;;;;;;;19.73;31.69;102448.88;4232115;28;20093;-47
2022/01/26 09:59:49;;;;;;;1.30;0.98;;;;;;;19.71;31.84;102437.16;4228999;28;20043;-45
2022/01/26 10:01:51;;;;;;;1.48;0.93;;;;;;;19.70;31.82;102442.94;4216777;28;20101;-46
2022/01/26 10:03:53;;;;;;;1.50;1.10;;;;;;;19.71;31.82;102448.28;4215861;28;20133;-48
2022/01/26 10:05:56;;;;;;;0.73;0.73;;;;;;;19.71;31.83;102451.06;4227143;28;20424;-50
2022/01/26 10:17:30;;;;;;;1.10;0.80;;;;;;;19.68;31.68;102459.00;4219733;28;20532;-44
2022/01/26 10:19:33;;;;;;;0.98;0.80;;;;;;;19.68;31.94;102456.22;4214402;28;20588;-46
2022/01/26 10:21:51;;;;;;;0.65;0.60;;;;;;;19.65;31.65;102457.53;4226509;28;20085;-47
2022/01/26 10:23:56;;;;;;;0.60;0.60;;;;;;;19.64;31.97;102461.41;4216829;28;20521;-49
2022/01/26 10:26:05;;;;;;;;;;;;;;;19.63;31.89;102470.81;4219465;28;20082;-46
2022/01/26 10:28:09;;;;;;;0.65;0.55;;;;;;;19.67;31.98;102469.28;4217316;28;19920;-46
2022/01/26 10:30:14;;;;;;;1.10;1.00;;;;;;;19.64;31.82;102466.97;4230650;28;20044;-47
2022/01/26 10:32:17;;;;;;;0.95;0.68;;;;;;;19.66;31.55;102473.13;4214724;28;20265;-49
2022/01/26 10:34:23;;;;;;;1.00;0.70;;;;;;;19.64;31.68;102472.50;4230372;28;20527;-47
2022/01/26 10:36:25;;;;;;;0.82;0.77;;;;;;;19.63;32.02;102478.31;4229708;28;20043;-45
2022/01/26 10:38:27;;;;;;;1.48;0.77;;;;;;;19.61;31.59;102484.09;4219707;28;20036;-45
2022/01/26 10:40:29;;;;;;;0.88;0.60;;;;;;;19.61;32.11;102481.34;4231478;28;20028;-49
2022/01/26 10:42:31;;;;;;;0.73;0.68;;;;;;;19.59;31.95;102483.44;4228683;28;20502;-50
2022/01/26 10:44:45;;;;;;;0.88;0.70;;;;;;;19.59;32.15;102485.38;4230824;28;20052;-46
2022/01/26 10:46:46;;;;;;;2.05;0.93;;;;;;;19.58;31.65;102483.69;4219467;28;20044;-48
2022/01/26 10:49:41;;;;;;;1.05;0.80;;;;;;;19.57;31.82;102488.41;4224297;28;20546;-45
2022/01/26 10:53:26;;;;;;;1.17;0.65;;;;;;;19.55;31.69;102493.31;4219976;28;20377;-44
2022/01/26 10:55:28;;;;;;;1.25;0.90;;;;;;;19.55;31.68;102493.31;4228147;28;20048;-47
2022/01/26 10:57:30;;;;;;;1.92;0.90;;;;;;;19.55;31.76;102496.09;4214386;28;20101;-50
2022/01/26 10:59:58;;;;;;;1.38;0.90;;;;;;;19.47;31.82;102499.19;4213912;28;20453;-46
2022/01/26 11:02:04;;;;;;;1.83;0.98;;;;;;;19.52;32.01;102503.00;4227415;28;20096;-47
2022/01/26 11:04:08;;;;;;;2.90;0.70;;;;;;;19.53;32.25;102506.59;4214338;28;20048;-47
2022/01/26 11:06:09;;;;;;;1.35;1.00;;;;;;;19.52;32.11;102513.25;4229830;28;20039;-46
2022/01/26 11:08:12;;;;;;;1.40;0.90;;;;;;;19.46;31.81;102522.50;4222336;28;20036;-47
2022/01/26 11:10:15;;;;;;;1.02;0.80;;;;;;;19.49;31.79;102533.16;4225073;28;20096;-47
2022/01/26 11:12:27;;;;;;;0.90;0.68;;;;;;;19.47;32.13;102538.06;4218079;28;20437;-46
2022/01/26 11:14:38;;;;;;;0.60;0.60;;;;;;;19.37;31.85;102529.44;4213603;28;20032;-45
2022/01/26 11:16:50;;;;;;;0.82;0.70;;;;;;;19.46;31.93;102544.69;4223820;28;20043;-47
2022/01/26 11:18:58;;;;;;;0.95;0.70;;;;;;;19.46;31.70;102537.22;4213521;28;20069;-49
2022/01/26 11:20:59;;;;;;;1.17;0.80;;;;;;;19.45;32.19;102548.56;4228296;28;20249;-45
2022/01/26 11:23:04;;;;;;;0.82;0.60;;;;;;;19.45;31.98;102551.34;4230427;28;20065;-46